Time;durP1;ratioP1;P1;durP2;ratioP2;P2;SDS_P1;SDS_P2;PMS_P1;PMS_P2;Temp;Humidity;BMP_temperature;BMP_pressure;BME280_temperature;BME280_humidity;BME280_pressure;Samples;Min_cycle;Max_cycle;Signal;HPM_P1;HPM_P2
2021/12/18 00:01:23;;;;;;;8.60;1.80;;;18.80;28.30;;;;;;5094356;28;20080;-58
2021/12/18 00:03:49;;;;;;;10.80;2.30;;;18.80;28.60;;;;;;5090755;28;20104;-63
2021/12/18 00:06:16;;;;;;;2.00;0.70;;;18.70;29.00;;;;;;5090899;28;20083;-61
2021/12/18 00:08:43;;;;;;;3.03;0.82;;;18.60;29.10;;;;;;5089727;28;20081;-61
2021/12/18 00:11:10;;;;;;;9.07;1.50;;;18.50;29.30;;;;;;5073463;28;20104;-64
2021/12/18 00:13:37;;;;;;;13.23;1.70;;;18.50;29.80;;;;;;5090354;28;20069;-63
2021/12/18 00:16:04;;;;;;;8.52;1.75;;;18.40;30.10;;;;;;5090593;28;20180;-64
2021/12/18 00:18:31;;;;;;;6.68;1.83;;;18.40;30.50;;;;;;5090880;28;20582;-63
2021/12/18 00:20:58;;;;;;;7.40;2.42;;;18.30;30.80;;;;;;5089842;28;20119;-60
2021/12/18 00:23:26;;;;;;;10.25;2.55;;;18.20;31.10;;;;;;5090697;28;20164;-61
2021/12/18 00:25:53;;;;;;;19.65;2.65;;;18.10;31.60;;;;;;5091105;28;20112;-63
2021/12/18 00:28:20;;;;;;;6.68;1.77;;;18.10;31.90;;;;;;5101314;28;20084;-64
2021/12/18 00:30:47;;;;;;;6.63;1.48;;;18.00;32.00;;;;;;5102134;28;20076;-62
2021/12/18 00:33:13;;;;;;;5.18;1.38;;;17.90;32.30;;;;;;5073296;28;20080;-62
2021/12/18 00:35:40;;;;;;;9.27;1.30;;;17.90;32.50;;;;;;5090029;28;20185;-62
2021/12/18 00:38:08;;;;;;;13.93;1.73;;;17.70;32.90;;;;;;5090494;28;20092;-63
2021/12/18 00:40:46;;;;;;;11.43;1.40;;;17.70;33.10;;;;;;5090678;28;20126;-61
2021/12/18 00:46:08;;;;;;;8.20;1.50;;;17.50;33.80;;;;;;5071865;28;20076;-64
2021/12/18 00:48:34;;;;;;;;;;;17.40;34.10;;;;;;5094856;28;20163;-62
2021/12/18 00:51:00;;;;;;;13.07;1.98;;;17.30;34.60;;;;;;5089480;28;19972;-62
2021/12/18 00:53:26;;;;;;;;;;;17.20;34.80;;;;;;5090276;28;20140;-61
2021/12/18 00:55:53;;;;;;;16.23;1.90;;;17.10;35.10;;;;;;5090759;28;19960;-63
2021/12/18 00:58:19;;;;;;;;;;;16.90;35.20;;;;;;5090154;28;20158;-62
2021/12/18 01:00:47;;;;;;;10.82;1.88;;;16.80;35.60;;;;;;5089286;28;19996;-63
2021/12/18 01:03:17;;;;;;;17.58;2.38;;;16.70;35.80;;;;;;5089754;28;20068;-64
2021/12/18 01:05:45;;;;;;;14.30;2.33;;;16.60;36.10;;;;;;5072405;28;20092;-63
2021/12/18 01:08:11;;;;;;;14.70;2.60;;;16.60;35.90;;;;;;5089183;28;20512;-61
2021/12/18 01:10:55;;;;;;;25.98;3.35;;;16.50;36.00;;;;;;5088760;28;20129;-62
2021/12/18 01:13:27;;;;;;;13.50;3.00;;;16.50;35.90;;;;;;5090861;28;20193;-61
2021/12/18 01:15:56;;;;;;;14.80;4.13;;;16.40;36.20;;;;;;5089992;28;20089;-63
2021/12/18 01:23:52;;;;;;;24.60;8.30;;;16.20;36.50;;;;;;5090164;28;20190;-61
2021/12/18 01:26:18;;;;;;;;;;;16.20;36.80;;;;;;5089307;28;20287;-63
2021/12/18 01:28:45;;;;;;;28.17;8.93;;;16.10;36.80;;;;;;5072618;28;20043;-62
2021/12/18 01:31:11;;;;;;;27.20;10.77;;;16.00;36.90;;;;;;5090550;28;20615;-60
2021/12/18 01:33:37;;;;;;;;;;;15.90;37.10;;;;;;5090343;28;20079;-64
2021/12/18 01:36:04;;;;;;;39.67;10.77;;;15.90;37.70;;;;;;5088276;28;19956;-61
2021/12/18 01:38:31;;;;;;;27.65;11.30;;;15.80;38.00;;;;;;5090291;28;20105;-62
2021/12/18 01:41:00;;;;;;;39.35;11.82;;;15.70;38.40;;;;;;5072598;28;20073;-61
2021/12/18 01:44:21;;;;;;;41.72;13.15;;;15.60;38.70;;;;;;5072385;28;20076;-62
2021/12/18 01:46:43;;;;;;;52.45;13.50;;;15.50;39.40;;;;;;5094742;28;20170;-62
2021/12/18 01:54:25;;;;;;;41.00;9.65;;;15.10;40.60;;;;;;5088930;28;20081;-62
2021/12/18 01:56:51;;;;;;;44.85;9.30;;;15.10;40.80;;;;;;5089040;28;20164;-62
2021/12/18 01:59:31;;;;;;;43.00;9.07;;;15.00;41.20;;;;;;5088934;28;20175;-64
2021/12/18 02:01:57;;;;;;;32.67;8.95;;;15.00;41.40;;;;;;5088274;28;20105;-65
2021/12/18 02:04:24;;;;;;;39.42;8.23;;;15.00;42.30;;;;;;5072126;28;20068;-63
2021/12/18 02:06:50;;;;;;;;;;;14.90;41.30;;;;;;5088338;28;20080;-62
2021/12/18 02:09:17;;;;;;;33.70;7.88;;;14.80;41.10;;;;;;5088915;28;20006;-62
2021/12/18 02:11:43;;;;;;;34.08;8.80;;;14.80;41.40;;;;;;5087805;28;20073;-63
2021/12/18 02:19:52;;;;;;;34.08;8.52;;;14.60;42.10;;;;;;5095607;28;20119;-64
2021/12/18 02:22:21;;;;;;;29.38;8.90;;;14.50;42.50;;;;;;5088786;28;20073;-63
2021/12/18 02:24:47;;;;;;;50.10;9.75;;;14.40;42.80;;;;;;5089183;28;20085;-65
2021/12/18 02:27:14;;;;;;;37.63;9.80;;;14.40;43.40;;;;;;5100791;28;20131;-62
2021/12/18 02:29:43;;;;;;;35.25;10.23;;;14.30;43.50;;;;;;5090673;28;20069;-62
2021/12/18 02:32:15;;;;;;;43.58;12.57;;;14.20;43.50;;;;;;5088406;28;20089;-63
2021/12/18 02:34:44;;;;;;;49.35;15.23;;;14.10;44.00;;;;;;5088541;28;20522;-64
2021/12/18 02:37:12;;;;;;;42.55;14.70;;;14.00;44.30;;;;;;5087537;28;20087;-61
2021/12/18 02:42:24;;;;;;;39.53;13.65;;;13.90;45.20;;;;;;5087622;28;20148;-61
2021/12/18 02:44:50;;;;;;;49.40;14.77;;;13.90;45.70;;;;;;5086910;28;20102;-61
2021/12/18 02:47:17;;;;;;;52.50;13.63;;;13.80;46.20;;;;;;5092574;28;20639;-63
2021/12/18 02:49:44;;;;;;;;;;;13.80;46.30;;;;;;5088880;28;20537;-61
2021/12/18 02:52:11;;;;;;;37.80;11.85;;;13.70;46.20;;;;;;5087136;28;19967;-61
2021/12/18 02:54:39;;;;;;;56.33;13.13;;;13.60;46.10;;;;;;5087524;28;20096;-63
2021/12/18 02:57:06;;;;;;;51.38;11.95;;;13.50;46.40;;;;;;5087565;28;20079;-63
2021/12/18 02:59:43;;;;;;;49.70;10.98;;;13.40;46.70;;;;;;5087813;28;20175;-64
2021/12/18 03:02:11;;;;;;;50.90;11.02;;;13.40;47.00;;;;;;5087790;28;20079;-62
2021/12/18 03:04:39;;;;;;;67.30;11.18;;;13.40;47.70;;;;;;5088733;28;20538;-64
2021/12/18 03:07:09;;;;;;;40.40;8.40;;;13.30;48.10;;;;;;5071274;28;20085;-62
2021/12/18 03:23:40;;;;;;;49.58;9.10;;;12.90;47.50;;;;;;5087638;28;20201;-63
2021/12/18 03:26:07;;;;;;;52.95;9.75;;;12.80;47.60;;;;;;5077950;28;20308;-63
2021/12/18 03:28:33;;;;;;;;;;;12.90;47.70;;;;;;5087148;28;20121;-63
2021/12/18 03:31:00;;;;;;;53.72;13.52;;;12.80;47.80;;;;;;5087181;28;19973;-63
2021/12/18 03:33:27;;;;;;;61.70;14.80;;;12.80;47.70;;;;;;5087687;28;20077;-62
2021/12/18 03:35:54;;;;;;;68.20;16.88;;;12.70;47.70;;;;;;5087655;28;20076;-60
2021/12/18 03:38:20;;;;;;;102.85;20.10;;;12.60;47.80;;;;;;5086777;28;20100;-59
2021/12/18 03:40:46;;;;;;;;;;;12.50;47.90;;;;;;5079288;28;20069;-61
2021/12/18 03:43:13;;;;;;;62.45;24.20;;;12.60;47.90;;;;;;5073112;28;19957;-61
2021/12/18 03:45:39;;;;;;;;;;;12.60;47.40;;;;;;5088336;28;20076;-62
2021/12/18 03:48:05;;;;;;;70.90;23.65;;;12.60;47.50;;;;;;5088982;28;19957;-62
2021/12/18 03:50:31;;;;;;;;;;;12.50;47.30;;;;;;5086972;28;20558;-63
2021/12/18 03:52:58;;;;;;;58.78;21.10;;;12.50;47.00;;;;;;5087829;28;19965;-62
2021/12/18 03:55:26;;;;;;;;;;;12.50;47.10;;;;;;5091041;28;20159;-60
2021/12/18 03:57:53;;;;;;;68.80;19.80;;;12.60;46.70;;;;;;5095847;28;20392;-62
2021/12/18 04:00:20;;;;;;;55.28;17.23;;;12.50;46.70;;;;;;5091017;28;20083;-62
2021/12/18 04:02:47;;;;;;;52.78;16.35;;;12.50;46.90;;;;;;5092103;28;20069;-62
2021/12/18 04:05:13;;;;;;;;;;;12.40;46.70;;;;;;5091392;28;20077;-63
2021/12/18 04:07:42;;;;;;;51.42;15.35;;;12.40;46.90;;;;;;5089686;28;19956;-62
2021/12/18 04:10:14;;;;;;;59.10;13.82;;;12.40;47.00;;;;;;5090327;28;20137;-61
2021/12/18 04:12:41;;;;;;;50.47;13.30;;;12.40;47.90;;;;;;5089750;28;20124;-61
2021/12/18 04:15:07;;;;;;;;;;;12.40;47.90;;;;;;5092284;28;20446;-61
2021/12/18 04:17:34;;;;;;;49.92;13.48;;;12.30;47.70;;;;;;5090238;28;19960;-61
2021/12/18 04:20:00;;;;;;;46.88;12.43;;;12.30;47.60;;;;;;5090169;28;20096;-62
2021/12/18 04:22:27;;;;;;;41.60;11.20;;;12.20;47.50;;;;;;5072226;28;20069;-62
2021/12/18 04:24:53;;;;;;;;;;;12.20;47.80;;;;;;5090962;28;20077;-63
2021/12/18 04:27:19;;;;;;;46.33;12.80;;;12.20;48.40;;;;;;5104401;28;19980;-62
2021/12/18 04:29:45;;;;;;;;;;;12.00;47.50;;;;;;5095963;28;20441;-61
2021/12/18 04:32:12;;;;;;;32.90;9.63;;;12.00;47.10;;;;;;5092596;28;19957;-61
2021/12/18 04:34:38;;;;;;;;;;;12.00;46.80;;;;;;5091040;28;20176;-62
2021/12/18 04:37:04;;;;;;;25.17;8.20;;;11.90;46.50;;;;;;5089655;28;20047;-63
2021/12/18 04:39:30;;;;;;;;;;;11.90;46.20;;;;;;5090364;28;20092;-62
2021/12/18 04:41:57;;;;;;;25.20;6.05;;;11.90;46.00;;;;;;5074088;28;19957;-62
2021/12/18 04:44:24;;;;;;;25.27;6.97;;;11.90;45.70;;;;;;5072522;28;20109;-63
2021/12/18 04:46:53;;;;;;;27.77;7.50;;;11.90;45.60;;;;;;5100503;28;20068;-61
2021/12/18 04:49:19;;;;;;;33.70;6.55;;;11.90;45.70;;;;;;5092200;28;20092;-63
2021/12/18 04:51:45;;;;;;;25.05;7.45;;;11.90;45.80;;;;;;5091376;28;20151;-61
2021/12/18 04:54:11;;;;;;;;;;;11.90;45.80;;;;;;5090840;28;20144;-63
2021/12/18 04:56:38;;;;;;;27.38;8.20;;;11.80;45.70;;;;;;5089542;28;20380;-64
2021/12/18 04:59:05;;;;;;;35.55;8.73;;;11.80;46.40;;;;;;5090040;28;20091;-62
2021/12/18 05:01:37;;;;;;;32.25;8.10;;;11.70;46.10;;;;;;5089711;28;20523;-62
2021/12/18 05:04:08;;;;;;;25.75;7.47;;;11.70;46.10;;;;;;5090575;28;20097;-64
2021/12/18 05:06:36;;;;;;;25.17;7.53;;;11.60;46.00;;;;;;5088375;28;20438;-63
2021/12/18 05:09:04;;;;;;;26.00;7.47;;;11.60;46.10;;;;;;5090940;28;20549;-64
2021/12/18 05:11:31;;;;;;;35.35;8.48;;;11.60;45.80;;;;;;5089656;28;20122;-62
2021/12/18 05:13:57;;;;;;;25.63;8.23;;;11.60;45.90;;;;;;5088686;28;20129;-61
2021/12/18 05:16:23;;;;;;;;;;;11.60;46.90;;;;;;5089728;28;20099;-61
2021/12/18 05:18:49;;;;;;;28.70;8.13;;;11.60;47.70;;;;;;5088977;28;19973;-65
2021/12/18 05:21:16;;;;;;;30.60;7.60;;;11.50;47.70;;;;;;5090734;28;20075;-62
2021/12/18 05:23:42;;;;;;;;;;;11.40;47.00;;;;;;5091048;28;20088;-64
2021/12/18 05:26:08;;;;;;;24.77;9.63;;;11.30;46.90;;;;;;5089762;28;19980;-63
2021/12/18 05:28:38;;;;;;;47.60;10.98;;;11.40;46.70;;;;;;5089670;28;20446;-65
2021/12/18 05:31:04;;;;;;;39.15;11.13;;;11.40;46.20;;;;;;5088833;28;20230;-64
2021/12/18 05:33:30;;;;;;;;;;;11.40;46.00;;;;;;5090223;28;20338;-63
2021/12/18 05:35:57;;;;;;;49.25;15.57;;;11.40;45.00;;;;;;5091136;28;20542;-64
2021/12/18 05:38:23;;;;;;;;;;;11.40;44.40;;;;;;5091655;28;20089;-63
2021/12/18 05:40:49;;;;;;;32.83;10.20;;;11.50;43.70;;;;;;5090039;28;19984;-64
2021/12/18 05:43:15;;;;;;;34.63;9.82;;;11.50;43.20;;;;;;5072702;28;20445;-64
2021/12/18 05:45:41;;;;;;;;;;;11.50;42.40;;;;;;5090753;28;20095;-63
2021/12/18 05:48:08;;;;;;;24.83;9.75;;;11.60;42.70;;;;;;5087161;28;19958;-66
2021/12/18 05:50:34;;;;;;;;;;;11.60;42.30;;;;;;5089391;28;20462;-62
2021/12/18 05:53:00;;;;;;;33.92;10.35;;;11.60;42.30;;;;;;5089284;28;20004;-65
2021/12/18 05:55:30;;;;;;;;;;;11.60;42.00;;;;;;5071326;28;20108;-63
2021/12/18 05:57:56;;;;;;;31.75;12.43;;;11.60;42.00;;;;;;5089528;28;19963;-63
2021/12/18 06:00:23;;;;;;;;;;;11.60;42.00;;;;;;5073575;28;20063;-63
2021/12/18 06:02:50;;;;;;;27.65;13.13;;;11.50;42.10;;;;;;5089901;28;19963;-63
2021/12/18 06:05:17;;;;;;;30.10;12.15;;;11.50;42.20;;;;;;5072503;28;20122;-63
2021/12/18 06:07:58;;;;;;;34.13;11.73;;;11.50;42.00;;;;;;5088896;28;20083;-63
2021/12/18 06:10:31;;;;;;;32.58;12.07;;;11.50;42.60;;;;;;5088548;28;20090;-64
2021/12/18 06:13:00;;;;;;;32.45;12.23;;;11.50;42.20;;;;;;5087979;28;20159;-61
2021/12/18 06:15:26;;;;;;;28.08;11.60;;;11.50;42.10;;;;;;5090517;28;20061;-62
2021/12/18 06:17:55;;;;;;;30.05;12.02;;;11.40;42.30;;;;;;5088529;28;20104;-64
2021/12/18 06:20:22;;;;;;;32.47;11.43;;;11.40;42.20;;;;;;5088283;28;20103;-63
2021/12/18 06:22:48;;;;;;;28.83;10.52;;;11.40;41.90;;;;;;5089597;28;20701;-63
2021/12/18 06:25:15;;;;;;;;;;;11.30;42.80;;;;;;5089912;28;20114;-64
2021/12/18 06:27:41;;;;;;;20.48;7.85;;;11.40;43.40;;;;;;5089059;28;19980;-63
2021/12/18 06:30:10;;;;;;;34.97;8.55;;;11.30;44.50;;;;;;5072142;28;20100;-63
2021/12/18 06:32:36;;;;;;;37.67;9.75;;;11.20;43.90;;;;;;5088433;28;20069;-64
2021/12/18 06:35:03;;;;;;;28.95;9.25;;;11.10;43.80;;;;;;5088986;28;20072;-62
2021/12/18 06:37:30;;;;;;;27.80;8.95;;;11.00;44.30;;;;;;5087842;28;20081;-65
2021/12/18 06:39:56;;;;;;;;;;;11.00;44.50;;;;;;5090580;28;20093;-63
2021/12/18 06:42:22;;;;;;;41.53;8.98;;;11.00;44.70;;;;;;5088893;28;19963;-64
2021/12/18 06:44:48;;;;;;;;;;;10.90;46.10;;;;;;5072395;28;20602;-64
2021/12/18 06:47:14;;;;;;;34.78;8.07;;;10.70;45.80;;;;;;5101990;28;20043;-64
2021/12/18 06:49:40;;;;;;;;;;;10.70;45.70;;;;;;5078980;28;20100;-63
2021/12/18 06:52:07;;;;;;;37.95;10.45;;;10.70;45.60;;;;;;5088357;28;19976;-64
2021/12/18 06:54:34;;;;;;;34.78;10.60;;;10.70;45.40;;;;;;5088583;28;20218;-62
2021/12/18 06:57:01;;;;;;;;;;;10.60;45.50;;;;;;5088999;28;20084;-64
2021/12/18 06:59:29;;;;;;;37.15;11.38;;;10.60;45.40;;;;;;5086965;28;20000;-62
2021/12/18 07:01:55;;;;;;;53.90;20.38;;;10.60;44.90;;;;;;5054988;28;20100;-64
2021/12/18 07:04:25;;;;;;;56.75;17.58;;;10.60;44.60;;;;;;5087969;28;20415;-62
2021/12/18 07:06:52;;;;;;;50.33;19.23;;;10.50;44.60;;;;;;5088411;28;20072;-63
2021/12/18 07:09:20;;;;;;;55.90;17.75;;;10.60;45.30;;;;;;5055167;28;20094;-63
2021/12/18 07:11:47;;;;;;;49.38;16.48;;;10.50;46.80;;;;;;5088416;28;20442;-64
2021/12/18 07:14:13;;;;;;;53.63;17.52;;;10.40;46.90;;;;;;5086252;28;20080;-62
2021/12/18 07:16:40;;;;;;;;;;;10.40;46.90;;;;;;5087304;28;20588;-64
2021/12/18 07:19:06;;;;;;;57.42;18.60;;;10.30;46.80;;;;;;5087386;28;19972;-62
2021/12/18 07:21:32;;;;;;;53.03;18.00;;;10.20;46.60;;;;;;5088622;28;20542;-63
2021/12/18 07:23:59;;;;;;;45.15;15.70;;;10.20;46.60;;;;;;5090755;28;20172;-65
2021/12/18 07:26:25;;;;;;;53.00;15.85;;;10.10;46.70;;;;;;5086900;28;20108;-64
2021/12/18 07:28:51;;;;;;;;;;;10.10;46.60;;;;;;5088775;28;20080;-63
2021/12/18 07:31:18;;;;;;;41.20;15.00;;;10.10;46.60;;;;;;5090992;28;19963;-61
2021/12/18 07:33:44;;;;;;;;;;;10.10;46.10;;;;;;5092774;28;20116;-63
2021/12/18 07:36:11;;;;;;;48.78;14.80;;;10.10;46.30;;;;;;5090231;28;20765;-63
2021/12/18 07:38:37;;;;;;;53.63;15.68;;;10.10;46.50;;;;;;5090091;28;20183;-62
2021/12/18 07:41:04;;;;;;;52.00;15.32;;;10.10;46.60;;;;;;5091171;28;20171;-59
2021/12/18 07:43:30;;;;;;;43.25;14.90;;;10.20;46.20;;;;;;5089679;28;20089;-61
2021/12/18 07:45:56;;;;;;;;;;;10.20;46.60;;;;;;5075361;28;20072;-60
2021/12/18 07:48:23;;;;;;;44.25;13.40;;;10.10;47.60;;;;;;5074468;28;20322;-62
2021/12/18 07:50:49;;;;;;;29.02;12.10;;;10.00;47.60;;;;;;5090549;28;20523;-63
2021/12/18 07:53:16;;;;;;;;;;;10.00;47.40;;;;;;5090161;28;20531;-61
2021/12/18 07:55:43;;;;;;;37.28;12.30;;;10.00;46.80;;;;;;5090244;28;20005;-60
2021/12/18 07:58:09;;;;;;;44.70;13.65;;;10.00;46.70;;;;;;5091914;28;20542;-63
2021/12/18 08:00:36;;;;;;;;;;;10.00;46.80;;;;;;5091910;28;20073;-62
2021/12/18 08:03:02;;;;;;;37.30;11.85;;;9.90;46.70;;;;;;5090708;28;19956;-63
2021/12/18 08:05:28;;;;;;;;;;;10.00;47.20;;;;;;5090929;28;20168;-63
2021/12/18 08:07:55;;;;;;;27.48;10.40;;;9.90;46.60;;;;;;5089256;28;19975;-63
2021/12/18 08:10:21;;;;;;;24.92;9.52;;;9.90;46.90;;;;;;5089812;28;20077;-62
2021/12/18 08:12:48;;;;;;;20.23;9.80;;;10.00;47.10;;;;;;5088872;28;20100;-60
2021/12/18 08:15:14;;;;;;;;;;;9.90;47.70;;;;;;5073530;28;20077;-65
2021/12/18 08:17:40;;;;;;;23.50;10.02;;;9.90;47.40;;;;;;5090435;28;19996;-64
2021/12/18 08:20:07;;;;;;;;;;;9.80;46.70;;;;;;5072460;28;20529;-62
2021/12/18 08:22:33;;;;;;;26.13;9.47;;;9.80;46.50;;;;;;5091390;28;19969;-60
2021/12/18 08:25:01;;;;;;;29.67;9.90;;;9.80;46.80;;;;;;5089426;28;20104;-62
2021/12/18 08:27:28;;;;;;;25.77;9.75;;;9.80;47.50;;;;;;5089489;28;20104;-62
2021/12/18 08:29:54;;;;;;;27.92;8.35;;;9.70;47.70;;;;;;5091159;28;20085;-64
2021/12/18 08:32:20;;;;;;;;;;;9.70;47.70;;;;;;5089912;28;20211;-63
2021/12/18 08:34:47;;;;;;;28.60;10.40;;;9.80;46.90;;;;;;5092340;28;20441;-61
2021/12/18 08:37:13;;;;;;;27.70;10.73;;;9.80;46.30;;;;;;5090348;28;20077;-61
2021/12/18 08:39:39;;;;;;;;;;;9.80;46.20;;;;;;5088158;28;20091;-61
2021/12/18 08:42:06;;;;;;;28.00;10.25;;;9.80;46.00;;;;;;5087815;28;19957;-63
2021/12/18 08:44:34;;;;;;;28.88;11.25;;;9.80;46.30;;;;;;5091283;28;20095;-61
2021/12/18 08:47:01;;;;;;;31.15;11.35;;;9.80;46.60;;;;;;5090052;28;20073;-61
2021/12/18 08:49:28;;;;;;;21.65;10.95;;;9.80;47.20;;;;;;5088355;28;20487;-61
2021/12/18 08:51:55;;;;;;;39.47;13.35;;;9.80;47.70;;;;;;5073049;28;20077;-60
2021/12/18 08:54:23;;;;;;;30.00;11.32;;;9.80;48.80;;;;;;5090031;28;20080;-60
2021/12/18 08:56:49;;;;;;;27.85;10.73;;;9.70;47.60;;;;;;5089863;28;20438;-60
2021/12/18 08:59:15;;;;;;;23.95;10.40;;;9.70;48.20;;;;;;5090875;28;20118;-62
2021/12/18 09:01:41;;;;;;;;;;;9.60;47.90;;;;;;5089574;28;20509;-60
2021/12/18 09:04:08;;;;;;;26.15;9.23;;;9.60;47.80;;;;;;5090264;28;20369;-62
2021/12/18 09:06:34;;;;;;;;;;;9.60;47.30;;;;;;5074643;28;20073;-61
2021/12/18 09:09:00;;;;;;;21.80;7.68;;;9.70;47.70;;;;;;5089808;28;19961;-62
2021/12/18 09:11:26;;;;;;;;;;;9.70;47.70;;;;;;5089367;28;20566;-61
2021/12/18 09:13:53;;;;;;;17.00;7.45;;;9.70;46.70;;;;;;5088268;28;19956;-61
2021/12/18 09:16:19;;;;;;;15.93;6.05;;;9.70;46.80;;;;;;5091048;28;20171;-63
2021/12/18 09:18:46;;;;;;;16.27;6.03;;;9.70;46.10;;;;;;5072515;28;20100;-59
2021/12/18 09:21:12;;;;;;;;;;;9.70;45.60;;;;;;5073431;28;20438;-62
2021/12/18 09:23:38;;;;;;;30.30;7.78;;;9.70;46.10;;;;;;5088778;28;19957;-63
2021/12/18 09:26:04;;;;;;;;;;;9.70;46.10;;;;;;5071879;28;20094;-62
2021/12/18 09:28:31;;;;;;;23.55;7.57;;;9.70;45.80;;;;;;5092058;28;19983;-60
2021/12/18 09:30:57;;;;;;;25.20;7.07;;;9.70;46.00;;;;;;5088379;28;20089;-61
2021/12/18 09:33:23;;;;;;;;;;;9.70;45.30;;;;;;5072445;28;20081;-62
2021/12/18 09:35:50;;;;;;;15.82;4.80;;;9.70;44.70;;;;;;5089734;28;20021;-62
2021/12/18 09:38:16;;;;;;;;;;;9.80;44.70;;;;;;5072541;28;20172;-61
2021/12/18 09:40:43;;;;;;;14.35;3.90;;;9.80;44.70;;;;;;5088507;28;20406;-61
2021/12/18 09:43:09;;;;;;;12.27;3.00;;;9.80;44.70;;;;;;5072137;28;20072;-63
2021/12/18 09:45:35;;;;;;;;;;;9.80;45.20;;;;;;5089095;28;20107;-62
2021/12/18 09:48:04;;;;;;;18.58;3.95;;;9.70;45.30;;;;;;5088816;28;19960;-63
2021/12/18 09:50:34;;;;;;;13.25;3.83;;;9.70;46.80;;;;;;5071362;28;20465;-61
2021/12/18 09:53:00;;;;;;;22.42;4.13;;;9.60;45.80;;;;;;5088438;28;20610;-61
2021/12/18 09:55:27;;;;;;;11.00;3.38;;;9.50;47.20;;;;;;5087856;28;20200;-63
2021/12/18 09:57:53;;;;;;;11.88;4.30;;;9.50;46.80;;;;;;5089077;28;20360;-60
2021/12/18 10:00:23;;;;;;;12.90;4.50;;;9.50;46.90;;;;;;5088369;28;20089;-62
2021/12/18 10:02:50;;;;;;;17.55;3.80;;;9.50;47.10;;;;;;5088027;28;20073;-63
2021/12/18 10:05:21;;;;;;;11.07;3.30;;;9.40;46.90;;;;;;5072668;28;20065;-61
2021/12/18 10:08:06;;;;;;;17.55;4.00;;;9.40;46.80;;;;;;5088886;28;20076;-62
2021/12/18 10:10:33;;;;;;;18.35;4.32;;;9.40;46.80;;;;;;5087222;28;20087;-61
2021/12/18 10:13:08;;;;;;;14.75;3.80;;;9.30;47.00;;;;;;5071842;28;20081;-61
2021/12/18 10:15:36;;;;;;;13.52;3.47;;;9.30;47.60;;;;;;5071042;28;20213;-61
2021/12/18 10:18:08;;;;;;;13.40;3.75;;;9.30;47.00;;;;;;5071937;28;20534;-62
2021/12/18 10:20:35;;;;;;;10.63;3.55;;;9.40;47.40;;;;;;5070326;28;20080;-62
2021/12/18 10:23:05;;;;;;;16.27;3.95;;;9.40;46.30;;;;;;5091569;28;20076;-61
2021/12/18 10:25:38;;;;;;;7.18;3.40;;;9.40;46.00;;;;;;5087354;28;20080;-63
2021/12/18 10:28:18;;;;;;;10.75;3.00;;;9.40;47.80;;;;;;5087851;28;20096;-62
2021/12/18 10:30:56;;;;;;;9.60;3.38;;;9.40;48.00;;;;;;5090411;28;20154;-62
2021/12/18 10:33:31;;;;;;;8.70;3.47;;;9.40;47.20;;;;;;5087045;28;20133;-63
2021/12/18 10:36:00;;;;;;;13.18;4.07;;;9.30;47.00;;;;;;5088152;28;20072;-64
2021/12/18 10:38:55;;;;;;;10.75;3.53;;;9.40;48.90;;;;;;5086257;28;20546;-63
2021/12/18 10:41:35;;;;;;;6.78;3.53;;;9.30;48.30;;;;;;5085854;28;20081;-64
2021/12/18 10:44:13;;;;;;;10.93;3.95;;;9.30;48.40;;;;;;5090993;28;20112;-63
2021/12/18 10:46:44;;;;;;;14.23;4.57;;;9.20;48.30;;;;;;5089566;28;20450;-61
2021/12/18 10:49:17;;;;;;;20.58;5.75;;;9.20;48.20;;;;;;5085929;28;20149;-61
2021/12/18 10:51:45;;;;;;;21.35;5.80;;;9.10;47.70;;;;;;5071250;28;20073;-61
2021/12/18 10:54:19;;;;;;;18.48;5.82;;;9.10;47.40;;;;;;5069177;28;20273;-61
2021/12/18 10:56:51;;;;;;;20.83;5.97;;;9.00;48.80;;;;;;5086745;28;20437;-61
2021/12/18 10:59:31;;;;;;;16.42;6.20;;;9.00;49.30;;;;;;5071776;28;20088;-60
2021/12/18 11:02:00;;;;;;;21.70;6.47;;;9.00;48.60;;;;;;5085889;28;20543;-60
2021/12/18 11:04:32;;;;;;;19.02;6.45;;;9.00;48.60;;;;;;5086310;28;20077;-61
2021/12/18 11:06:59;;;;;;;18.90;6.45;;;9.00;48.60;;;;;;5086872;28;20064;-60
2021/12/18 11:09:30;;;;;;;25.10;7.32;;;9.00;48.40;;;;;;5086827;28;20542;-60
2021/12/18 11:14:40;;;;;;;22.63;7.32;;;9.00;49.80;;;;;;5087326;28;20445;-61
2021/12/18 11:17:10;;;;;;;20.33;6.82;;;8.90;49.70;;;;;;5085720;28;21635;-61
2021/12/18 11:19:39;;;;;;;14.93;5.70;;;8.90;49.60;;;;;;5086374;28;20589;-63
2021/12/18 11:22:16;;;;;;;18.95;6.00;;;8.90;49.30;;;;;;5086459;28;20092;-62
2021/12/18 11:24:46;;;;;;;;;;;8.80;50.40;;;;;;5087647;28;20208;-64
2021/12/18 11:27:17;;;;;;;16.25;5.50;;;8.80;50.00;;;;;;5086367;28;20476;-63
2021/12/18 11:29:51;;;;;;;24.00;5.70;;;8.70;49.70;;;;;;5088253;28;20545;-63
2021/12/18 11:32:24;;;;;;;15.15;5.40;;;8.70;49.50;;;;;;5087655;28;20109;-59
2021/12/18 11:34:53;;;;;;;17.35;5.53;;;8.70;50.10;;;;;;5086683;28;20100;-61
2021/12/18 11:37:21;;;;;;;12.27;5.28;;;8.70;49.70;;;;;;5086082;28;20118;-62
2021/12/18 11:39:49;;;;;;;11.50;4.75;;;8.60;50.20;;;;;;5087663;28;20153;-61
2021/12/18 11:42:17;;;;;;;29.02;5.70;;;8.60;50.00;;;;;;5088050;28;20523;-62
2021/12/18 11:44:56;;;;;;;23.13;4.85;;;8.60;49.70;;;;;;5054361;28;20087;-61
2021/12/18 11:47:26;;;;;;;13.27;5.43;;;8.60;50.60;;;;;;5071225;28;20088;-60
2021/12/18 11:49:56;;;;;;;20.23;5.18;;;8.50;50.50;;;;;;5086087;28;20092;-61
2021/12/18 11:52:23;;;;;;;14.40;4.72;;;8.50;50.30;;;;;;5087871;28;20080;-62
2021/12/18 11:54:56;;;;;;;16.17;5.85;;;8.50;50.40;;;;;;5087226;28;20087;-61
2021/12/18 11:57:40;;;;;;;18.95;5.70;;;8.50;50.60;;;;;;5087030;28;20576;-61
2021/12/18 12:00:37;;;;;;;22.02;6.93;;;8.50;49.40;;;;;;5086446;28;20088;-65
2021/12/18 12:03:07;;;;;;;22.10;6.13;;;8.40;49.10;;;;;;5005769;28;20704;-63
2021/12/18 12:05:46;;;;;;;16.77;5.43;;;8.40;49.50;;;;;;5006530;28;20081;-63
2021/12/18 12:08:38;;;;;;;12.38;5.70;;;8.40;50.60;;;;;;5007720;28;20104;-63
2021/12/18 12:11:16;;;;;;;19.55;6.55;;;8.40;51.00;;;;;;5023557;28;20070;-62
2021/12/18 12:14:08;;;;;;;23.20;6.35;;;8.30;51.30;;;;;;5021975;28;20098;-64
2021/12/18 12:16:47;;;;;;;14.13;6.65;;;8.20;52.00;;;;;;5009678;28;20551;-60
2021/12/18 12:19:22;;;;;;;21.88;6.78;;;8.10;52.10;;;;;;5025326;28;20116;-62
2021/12/18 12:21:56;;;;;;;17.23;7.25;;;8.00;52.50;;;;;;5011009;28;20104;-63
2021/12/18 12:24:28;;;;;;;20.13;8.63;;;8.00;52.30;;;;;;5025648;28;20081;-61
2021/12/18 12:27:15;;;;;;;18.27;8.00;;;8.00;51.00;;;;;;5013031;28;20112;-55
2021/12/18 12:29:49;;;;;;;20.30;7.55;;;7.90;50.60;;;;;;4996966;28;20552;-63
2021/12/18 12:32:20;;;;;;;27.00;7.70;;;7.90;50.40;;;;;;5025196;28;20547;-62
2021/12/18 12:35:03;;;;;;;21.88;7.15;;;7.90;50.90;;;;;;5009749;28;20078;-60
2021/12/18 12:37:36;;;;;;;24.63;6.72;;;7.90;50.40;;;;;;5012427;28;20295;-60
2021/12/18 12:40:03;;;;;;;18.67;7.05;;;7.80;50.50;;;;;;5048712;28;20134;-59
2021/12/18 12:42:31;;;;;;;24.23;8.00;;;7.90;50.80;;;;;;5091203;28;20082;-62
2021/12/18 12:45:08;;;;;;;24.92;7.97;;;7.90;51.10;;;;;;5093372;28;20114;-61
2021/12/18 12:47:35;;;;;;;28.77;8.55;;;8.00;51.00;;;;;;5091825;28;20064;-60
2021/12/18 12:50:25;;;;;;;17.77;7.57;;;7.90;51.20;;;;;;5088823;28;20097;-60
2021/12/18 12:52:55;;;;;;;21.85;7.50;;;7.90;51.60;;;;;;5090881;28;20151;-63
2021/12/18 12:55:25;;;;;;;25.45;8.73;;;7.80;51.80;;;;;;5088701;28;20077;-59
2021/12/18 12:58:25;;;;;;;16.60;7.85;;;7.70;52.10;;;;;;5088827;28;20072;-61
2021/12/18 13:01:10;;;;;;;26.60;7.25;;;7.70;52.20;;;;;;5083893;28;20511;-61
2021/12/18 13:03:40;;;;;;;24.45;8.35;;;7.70;52.30;;;;;;5088874;28;20427;-59
2021/12/18 13:06:26;;;;;;;26.65;8.40;;;7.70;51.40;;;;;;5090769;28;20069;-60
2021/12/18 13:08:52;;;;;;;18.65;7.90;;;7.80;52.30;;;;;;5071641;28;20546;-62
2021/12/18 13:11:24;;;;;;;18.73;7.78;;;7.80;51.60;;;;;;5088965;28;20407;-62
2021/12/18 13:13:53;;;;;;;19.27;7.70;;;7.70;51.90;;;;;;5055605;28;20126;-59
2021/12/18 13:16:22;;;;;;;15.73;6.93;;;7.80;50.90;;;;;;5088554;28;20127;-59
2021/12/18 13:18:50;;;;;;;21.95;7.18;;;7.80;50.90;;;;;;5088064;28;20565;-61
2021/12/18 13:21:25;;;;;;;25.08;6.40;;;7.80;51.00;;;;;;5089727;28;20068;-63
2021/12/18 13:23:52;;;;;;;13.43;5.82;;;7.90;50.90;;;;;;5089205;28;20133;-61
2021/12/18 13:26:37;;;;;;;16.27;5.43;;;7.70;51.70;;;;;;5087420;28;20113;-62
2021/12/18 13:29:09;;;;;;;24.05;5.53;;;7.70;51.70;;;;;;5088876;28;20434;-63
2021/12/18 13:31:45;;;;;;;15.43;4.97;;;7.70;50.60;;;;;;5087532;28;20507;-63
2021/12/18 13:34:15;;;;;;;20.10;4.80;;;7.70;50.40;;;;;;5088171;28;20103;-63
2021/12/18 13:36:56;;;;;;;15.55;4.13;;;7.70;50.30;;;;;;5073367;28;20471;-63
2021/12/18 13:39:31;;;;;;;9.93;4.03;;;7.80;50.10;;;;;;5087370;28;20093;-61
2021/12/18 13:42:06;;;;;;;11.45;4.32;;;7.80;50.70;;;;;;5088772;28;20096;-62